sensor_id;sensor_type;location;lat;lon;timestamp;P1;durP1;ratioP1;P2;durP2;ratioP2
53040;SDS011;39326;42.650;23.248;2023-04-07T00:02:14;9.77;;;8.73;;
53040;SDS011;39326;42.650;23.248;2023-04-07T00:04:40;11.10;;;9.90;;
53040;SDS011;39326;42.650;23.248;2023-04-07T00:07:07;10.83;;;9.83;;
53040;SDS011;39326;42.650;23.248;2023-04-07T00:09:33;8.10;;;7.30;;
53040;SDS011;39326;42.650;23.248;2023-04-07T00:11:59;11.10;;;9.97;;
53040;SDS011;39326;42.650;23.248;2023-04-07T00:14:27;10.37;;;9.33;;
53040;SDS011;39326;42.650;23.248;2023-04-07T00:16:53;9.57;;;8.67;;
53040;SDS011;39326;42.650;23.248;2023-04-07T00:19:20;11.10;;;9.97;;
53040;SDS011;39326;42.650;23.248;2023-04-07T00:21:45;9.57;;;8.67;;
53040;SDS011;39326;42.650;23.248;2023-04-07T00:24:12;10.70;;;9.60;;
53040;SDS011;39326;42.650;23.248;2023-04-07T00:26:37;10.07;;;9.07;;
53040;SDS011;39326;42.650;23.248;2023-04-07T00:29:03;11.27;;;8.03;;
53040;SDS011;39326;42.650;23.248;2023-04-07T00:31:29;9.77;;;8.83;;
53040;SDS011;39326;42.650;23.248;2023-04-07T00:33:56;12.33;;;9.20;;
53040;SDS011;39326;42.650;23.248;2023-04-07T00:36:22;10.53;;;8.73;;
53040;SDS011;39326;42.650;23.248;2023-04-07T00:38:49;9.40;;;7.87;;
53040;SDS011;39326;42.650;23.248;2023-04-07T00:41:15;10.07;;;8.63;;
53040;SDS011;39326;42.650;23.248;2023-04-07T00:43:41;8.30;;;7.50;;
53040;SDS011;39326;42.650;23.248;2023-04-07T00:46:07;9.63;;;8.73;;
53040;SDS011;39326;42.650;23.248;2023-04-07T00:48:33;9.57;;;8.57;;
53040;SDS011;39326;42.650;23.248;2023-04-07T00:50:59;10.93;;;8.73;;
53040;SDS011;39326;42.650;23.248;2023-04-07T00:53:26;10.47;;;9.40;;
53040;SDS011;39326;42.650;23.248;2023-04-07T00:55:53;11.57;;;9.50;;
53040;SDS011;39326;42.650;23.248;2023-04-07T00:58:20;10.37;;;9.27;;
53040;SDS011;39326;42.650;23.248;2023-04-07T01:00:50;11.83;;;8.57;;
53040;SDS011;39326;42.650;23.248;2023-04-07T01:03:29;9.50;;;8.50;;
53040;SDS011;39326;42.650;23.248;2023-04-07T01:06:00;9.60;;;8.70;;
53040;SDS011;39326;42.650;23.248;2023-04-07T01:09:00;9.80;;;8.80;;
53040;SDS011;39326;42.650;23.248;2023-04-07T01:11:27;10.50;;;9.30;;
53040;SDS011;39326;42.650;23.248;2023-04-07T01:13:59;11.00;;;9.90;;
53040;SDS011;39326;42.650;23.248;2023-04-07T01:16:30;10.40;;;9.40;;
53040;SDS011;39326;42.650;23.248;2023-04-07T01:19:00;9.33;;;8.33;;
53040;SDS011;39326;42.650;23.248;2023-04-07T01:21:48;11.10;;;8.73;;
53040;SDS011;39326;42.650;23.248;2023-04-07T01:24:33;9.87;;;8.87;;
53040;SDS011;39326;42.650;23.248;2023-04-07T01:27:13;9.33;;;8.40;;
53040;SDS011;39326;42.650;23.248;2023-04-07T01:29:59;9.83;;;8.93;;
53040;SDS011;39326;42.650;23.248;2023-04-07T01:32:28;9.17;;;7.90;;
53040;SDS011;39326;42.650;23.248;2023-04-07T01:34:56;9.50;;;8.60;;
53040;SDS011;39326;42.650;23.248;2023-04-07T01:37:25;8.93;;;8.03;;
53040;SDS011;39326;42.650;23.248;2023-04-07T01:39:52;11.97;;;9.07;;
53040;SDS011;39326;42.650;23.248;2023-04-07T01:42:18;8.67;;;7.77;;
53040;SDS011;39326;42.650;23.248;2023-04-07T01:44:45;9.67;;;8.77;;
53040;SDS011;39326;42.650;23.248;2023-04-07T01:47:13;9.03;;;8.20;;
53040;SDS011;39326;42.650;23.248;2023-04-07T01:49:40;9.23;;;8.10;;
53040;SDS011;39326;42.650;23.248;2023-04-07T01:52:08;8.83;;;7.97;;
53040;SDS011;39326;42.650;23.248;2023-04-07T01:54:35;8.80;;;7.73;;
53040;SDS011;39326;42.650;23.248;2023-04-07T01:57:03;8.53;;;7.73;;
53040;SDS011;39326;42.650;23.248;2023-04-07T01:59:29;9.17;;;8.00;;
53040;SDS011;39326;42.650;23.248;2023-04-07T02:01:56;8.53;;;7.73;;
53040;SDS011;39326;42.650;23.248;2023-04-07T02:07:01;8.30;;;7.50;;
53040;SDS011;39326;42.650;23.248;2023-04-07T02:09:33;8.30;;;7.50;;
53040;SDS011;39326;42.650;23.248;2023-04-07T02:12:02;7.53;;;6.83;;
53040;SDS011;39326;42.650;23.248;2023-04-07T02:14:30;7.13;;;6.23;;
53040;SDS011;39326;42.650;23.248;2023-04-07T02:16:57;8.37;;;7.57;;
53040;SDS011;39326;42.650;23.248;2023-04-07T02:19:25;8.83;;;7.87;;
53040;SDS011;39326;42.650;23.248;2023-04-07T02:21:54;7.70;;;7.10;;
53040;SDS011;39326;42.650;23.248;2023-04-07T02:24:24;8.43;;;7.63;;
53040;SDS011;39326;42.650;23.248;2023-04-07T02:26:51;10.27;;;8.00;;
53040;SDS011;39326;42.650;23.248;2023-04-07T02:29:17;8.53;;;7.80;;
53040;SDS011;39326;42.650;23.248;2023-04-07T02:31:43;8.57;;;7.63;;
53040;SDS011;39326;42.650;23.248;2023-04-07T02:34:09;8.00;;;7.40;;
53040;SDS011;39326;42.650;23.248;2023-04-07T02:36:36;8.57;;;7.27;;
53040;SDS011;39326;42.650;23.248;2023-04-07T02:39:02;8.83;;;8.03;;
53040;SDS011;39326;42.650;23.248;2023-04-07T02:41:29;8.37;;;7.47;;
53040;SDS011;39326;42.650;23.248;2023-04-07T02:43:55;7.70;;;6.90;;
53040;SDS011;39326;42.650;23.248;2023-04-07T02:46:21;8.40;;;7.60;;
53040;SDS011;39326;42.650;23.248;2023-04-07T02:48:48;8.23;;;7.50;;
53040;SDS011;39326;42.650;23.248;2023-04-07T02:51:14;7.37;;;6.67;;
53040;SDS011;39326;42.650;23.248;2023-04-07T02:53:41;7.57;;;6.87;;
53040;SDS011;39326;42.650;23.248;2023-04-07T02:56:07;8.47;;;7.57;;
53040;SDS011;39326;42.650;23.248;2023-04-07T02:58:33;8.00;;;7.27;;
53040;SDS011;39326;42.650;23.248;2023-04-07T03:01:00;8.00;;;7.13;;
53040;SDS011;39326;42.650;23.248;2023-04-07T03:03:27;7.93;;;7.10;;
53040;SDS011;39326;42.650;23.248;2023-04-07T03:05:53;8.13;;;7.03;;
53040;SDS011;39326;42.650;23.248;2023-04-07T03:08:19;7.93;;;7.23;;
53040;SDS011;39326;42.650;23.248;2023-04-07T03:10:46;7.37;;;6.77;;
53040;SDS011;39326;42.650;23.248;2023-04-07T03:13:12;7.57;;;6.77;;
53040;SDS011;39326;42.650;23.248;2023-04-07T03:15:41;7.47;;;6.63;;
53040;SDS011;39326;42.650;23.248;2023-04-07T03:18:07;7.17;;;6.53;;
53040;SDS011;39326;42.650;23.248;2023-04-07T03:20:33;7.63;;;6.93;;
53040;SDS011;39326;42.650;23.248;2023-04-07T03:22:59;9.37;;;7.83;;
53040;SDS011;39326;42.650;23.248;2023-04-07T03:25:26;7.17;;;6.47;;
53040;SDS011;39326;42.650;23.248;2023-04-07T03:27:53;8.83;;;7.10;;
53040;SDS011;39326;42.650;23.248;2023-04-07T03:30:19;7.47;;;6.57;;
53040;SDS011;39326;42.650;23.248;2023-04-07T03:32:45;8.10;;;7.30;;
53040;SDS011;39326;42.650;23.248;2023-04-07T03:35:11;7.73;;;6.97;;
53040;SDS011;39326;42.650;23.248;2023-04-07T03:37:37;7.80;;;7.00;;
53040;SDS011;39326;42.650;23.248;2023-04-07T03:40:04;7.53;;;6.73;;
53040;SDS011;39326;42.650;23.248;2023-04-07T03:42:31;10.67;;;7.80;;
53040;SDS011;39326;42.650;23.248;2023-04-07T03:44:58;7.73;;;7.03;;
53040;SDS011;39326;42.650;23.248;2023-04-07T03:47:25;8.67;;;6.93;;
53040;SDS011;39326;42.650;23.248;2023-04-07T03:49:51;8.03;;;7.33;;
53040;SDS011;39326;42.650;23.248;2023-04-07T03:52:20;7.50;;;6.80;;
53040;SDS011;39326;42.650;23.248;2023-04-07T03:54:47;7.87;;;7.07;;
53040;SDS011;39326;42.650;23.248;2023-04-07T03:57:17;7.60;;;6.90;;
53040;SDS011;39326;42.650;23.248;2023-04-07T03:59:43;7.13;;;6.40;;
53040;SDS011;39326;42.650;23.248;2023-04-07T04:02:11;7.13;;;6.43;;
53040;SDS011;39326;42.650;23.248;2023-04-07T04:04:38;7.43;;;6.63;;
53040;SDS011;39326;42.650;23.248;2023-04-07T04:07:04;7.57;;;6.40;;
53040;SDS011;39326;42.650;23.248;2023-04-07T04:09:30;11.60;;;7.67;;
53040;SDS011;39326;42.650;23.248;2023-04-07T04:11:56;7.60;;;6.50;;
53040;SDS011;39326;42.650;23.248;2023-04-07T04:14:23;8.33;;;7.50;;
53040;SDS011;39326;42.650;23.248;2023-04-07T04:16:50;8.90;;;8.00;;
53040;SDS011;39326;42.650;23.248;2023-04-07T04:19:16;8.00;;;7.17;;
53040;SDS011;39326;42.650;23.248;2023-04-07T04:21:42;7.77;;;7.03;;
53040;SDS011;39326;42.650;23.248;2023-04-07T04:24:08;8.03;;;7.30;;
53040;SDS011;39326;42.650;23.248;2023-04-07T04:26:34;7.63;;;6.77;;
53040;SDS011;39326;42.650;23.248;2023-04-07T04:29:00;7.73;;;7.03;;
53040;SDS011;39326;42.650;23.248;2023-04-07T04:31:28;8.87;;;7.60;;
53040;SDS011;39326;42.650;23.248;2023-04-07T04:33:53;5.40;;;4.90;;
53040;SDS011;39326;42.650;23.248;2023-04-07T04:36:20;7.50;;;6.80;;
53040;SDS011;39326;42.650;23.248;2023-04-07T04:38:46;8.57;;;7.37;;
53040;SDS011;39326;42.650;23.248;2023-04-07T04:41:12;8.53;;;7.47;;
53040;SDS011;39326;42.650;23.248;2023-04-07T04:43:39;8.13;;;7.33;;
53040;SDS011;39326;42.650;23.248;2023-04-07T04:46:05;9.57;;;6.93;;
53040;SDS011;39326;42.650;23.248;2023-04-07T04:48:32;8.33;;;7.53;;
53040;SDS011;39326;42.650;23.248;2023-04-07T04:50:58;8.20;;;7.40;;
53040;SDS011;39326;42.650;23.248;2023-04-07T04:53:24;7.77;;;7.03;;
53040;SDS011;39326;42.650;23.248;2023-04-07T04:55:50;7.83;;;6.33;;
53040;SDS011;39326;42.650;23.248;2023-04-07T04:58:17;7.27;;;6.57;;
53040;SDS011;39326;42.650;23.248;2023-04-07T05:00:44;8.37;;;7.57;;
53040;SDS011;39326;42.650;23.248;2023-04-07T05:03:11;8.80;;;7.87;;
53040;SDS011;39326;42.650;23.248;2023-04-07T05:05:37;8.20;;;7.37;;
53040;SDS011;39326;42.650;23.248;2023-04-07T05:08:04;6.93;;;6.33;;
53040;SDS011;39326;42.650;23.248;2023-04-07T05:10:30;7.83;;;7.10;;
53040;SDS011;39326;42.650;23.248;2023-04-07T05:12:56;9.13;;;8.10;;
53040;SDS011;39326;42.650;23.248;2023-04-07T05:15:22;8.30;;;7.50;;
53040;SDS011;39326;42.650;23.248;2023-04-07T05:17:48;8.60;;;7.73;;
53040;SDS011;39326;42.650;23.248;2023-04-07T05:20:15;8.77;;;7.87;;
53040;SDS011;39326;42.650;23.248;2023-04-07T05:22:41;9.40;;;7.17;;
53040;SDS011;39326;42.650;23.248;2023-04-07T05:25:07;8.83;;;7.67;;
53040;SDS011;39326;42.650;23.248;2023-04-07T05:27:34;7.80;;;7.00;;
53040;SDS011;39326;42.650;23.248;2023-04-07T05:30:00;9.10;;;6.73;;
53040;SDS011;39326;42.650;23.248;2023-04-07T05:32:26;11.33;;;6.23;;
53040;SDS011;39326;42.650;23.248;2023-04-07T05:34:54;7.47;;;6.77;;
53040;SDS011;39326;42.650;23.248;2023-04-07T05:37:20;10.23;;;6.83;;
53040;SDS011;39326;42.650;23.248;2023-04-07T05:39:46;8.27;;;6.53;;
53040;SDS011;39326;42.650;23.248;2023-04-07T05:42:13;7.53;;;6.67;;
53040;SDS011;39326;42.650;23.248;2023-04-07T05:44:39;7.63;;;6.87;;
53040;SDS011;39326;42.650;23.248;2023-04-07T05:47:05;5.37;;;4.87;;
53040;SDS011;39326;42.650;23.248;2023-04-07T05:49:36;7.57;;;6.43;;
53040;SDS011;39326;42.650;23.248;2023-04-07T05:52:13;8.50;;;7.20;;
53040;SDS011;39326;42.650;23.248;2023-04-07T05:54:40;7.77;;;5.73;;
53040;SDS011;39326;42.650;23.248;2023-04-07T05:57:06;7.17;;;6.47;;
53040;SDS011;39326;42.650;23.248;2023-04-07T05:59:32;7.17;;;4.80;;
53040;SDS011;39326;42.650;23.248;2023-04-07T06:02:02;6.53;;;5.97;;
53040;SDS011;39326;42.650;23.248;2023-04-07T06:04:28;7.87;;;6.37;;
53040;SDS011;39326;42.650;23.248;2023-04-07T06:06:55;7.27;;;6.57;;
53040;SDS011;39326;42.650;23.248;2023-04-07T06:09:21;7.80;;;7.07;;
53040;SDS011;39326;42.650;23.248;2023-04-07T06:11:48;7.00;;;6.30;;
53040;SDS011;39326;42.650;23.248;2023-04-07T06:14:16;7.53;;;6.83;;
53040;SDS011;39326;42.650;23.248;2023-04-07T06:16:43;7.67;;;7.00;;
53040;SDS011;39326;42.650;23.248;2023-04-07T06:19:09;7.50;;;6.80;;
53040;SDS011;39326;42.650;23.248;2023-04-07T06:21:35;7.80;;;6.80;;
53040;SDS011;39326;42.650;23.248;2023-04-07T06:24:02;7.43;;;6.83;;
53040;SDS011;39326;42.650;23.248;2023-04-07T06:26:28;7.60;;;6.50;;
53040;SDS011;39326;42.650;23.248;2023-04-07T06:28:55;6.67;;;6.07;;
53040;SDS011;39326;42.650;23.248;2023-04-07T06:31:22;8.00;;;6.53;;
53040;SDS011;39326;42.650;23.248;2023-04-07T06:33:49;6.77;;;6.10;;
53040;SDS011;39326;42.650;23.248;2023-04-07T06:36:16;7.50;;;6.73;;
53040;SDS011;39326;42.650;23.248;2023-04-07T06:38:42;6.43;;;5.53;;
53040;SDS011;39326;42.650;23.248;2023-04-07T06:41:08;6.93;;;6.20;;
53040;SDS011;39326;42.650;23.248;2023-04-07T06:43:41;7.00;;;5.63;;
53040;SDS011;39326;42.650;23.248;2023-04-07T06:46:08;7.63;;;6.40;;
53040;SDS011;39326;42.650;23.248;2023-04-07T06:48:34;7.40;;;6.07;;
53040;SDS011;39326;42.650;23.248;2023-04-07T06:51:00;6.93;;;6.23;;
53040;SDS011;39326;42.650;23.248;2023-04-07T06:53:26;7.43;;;6.57;;
53040;SDS011;39326;42.650;23.248;2023-04-07T06:56:05;8.20;;;6.27;;
53040;SDS011;39326;42.650;23.248;2023-04-07T06:58:33;8.07;;;6.53;;
53040;SDS011;39326;42.650;23.248;2023-04-07T07:00:59;7.27;;;6.57;;
53040;SDS011;39326;42.650;23.248;2023-04-07T07:03:26;6.70;;;6.10;;
53040;SDS011;39326;42.650;23.248;2023-04-07T07:05:59;6.87;;;5.70;;
53040;SDS011;39326;42.650;23.248;2023-04-07T07:08:26;6.70;;;6.10;;
53040;SDS011;39326;42.650;23.248;2023-04-07T07:10:53;6.47;;;5.63;;
53040;SDS011;39326;42.650;23.248;2023-04-07T07:13:21;6.97;;;6.27;;
53040;SDS011;39326;42.650;23.248;2023-04-07T07:15:48;6.90;;;5.63;;
53040;SDS011;39326;42.650;23.248;2023-04-07T07:18:15;7.93;;;7.13;;
53040;SDS011;39326;42.650;23.248;2023-04-07T07:20:41;6.97;;;6.23;;
53040;SDS011;39326;42.650;23.248;2023-04-07T07:23:07;10.53;;;6.93;;
53040;SDS011;39326;42.650;23.248;2023-04-07T07:25:33;8.17;;;6.67;;
53040;SDS011;39326;42.650;23.248;2023-04-07T07:27:59;8.27;;;6.10;;
53040;SDS011;39326;42.650;23.248;2023-04-07T07:30:25;7.07;;;6.37;;
53040;SDS011;39326;42.650;23.248;2023-04-07T07:32:51;7.63;;;6.07;;
53040;SDS011;39326;42.650;23.248;2023-04-07T07:35:18;5.37;;;4.83;;
53040;SDS011;39326;42.650;23.248;2023-04-07T07:37:44;7.10;;;6.40;;
53040;SDS011;39326;42.650;23.248;2023-04-07T07:40:11;8.73;;;6.30;;
53040;SDS011;39326;42.650;23.248;2023-04-07T07:42:38;8.00;;;6.37;;
53040;SDS011;39326;42.650;23.248;2023-04-07T07:45:04;7.33;;;6.63;;
53040;SDS011;39326;42.650;23.248;2023-04-07T07:47:30;7.50;;;5.90;;
53040;SDS011;39326;42.650;23.248;2023-04-07T07:49:57;6.40;;;5.80;;
53040;SDS011;39326;42.650;23.248;2023-04-07T07:52:23;6.73;;;6.00;;
53040;SDS011;39326;42.650;23.248;2023-04-07T07:54:50;6.13;;;5.63;;
53040;SDS011;39326;42.650;23.248;2023-04-07T07:57:16;7.43;;;5.90;;
53040;SDS011;39326;42.650;23.248;2023-04-07T07:59:42;6.83;;;6.13;;
53040;SDS011;39326;42.650;23.248;2023-04-07T08:02:08;6.63;;;5.90;;
53040;SDS011;39326;42.650;23.248;2023-04-07T08:04:35;6.60;;;5.80;;
53040;SDS011;39326;42.650;23.248;2023-04-07T08:07:02;7.70;;;6.57;;
53040;SDS011;39326;42.650;23.248;2023-04-07T08:09:28;6.00;;;5.47;;
53040;SDS011;39326;42.650;23.248;2023-04-07T08:11:56;7.43;;;6.73;;
53040;SDS011;39326;42.650;23.248;2023-04-07T08:14:22;6.70;;;6.03;;
53040;SDS011;39326;42.650;23.248;2023-04-07T08:16:49;7.00;;;6.30;;
53040;SDS011;39326;42.650;23.248;2023-04-07T08:19:16;7.67;;;5.97;;
53040;SDS011;39326;42.650;23.248;2023-04-07T08:21:42;6.73;;;6.03;;
53040;SDS011;39326;42.650;23.248;2023-04-07T08:24:09;6.80;;;6.10;;
53040;SDS011;39326;42.650;23.248;2023-04-07T08:26:35;5.70;;;5.20;;
53040;SDS011;39326;42.650;23.248;2023-04-07T08:29:02;7.70;;;6.10;;
53040;SDS011;39326;42.650;23.248;2023-04-07T08:31:28;6.73;;;6.10;;
53040;SDS011;39326;42.650;23.248;2023-04-07T08:33:54;7.10;;;6.47;;
53040;SDS011;39326;42.650;23.248;2023-04-07T08:36:24;6.80;;;5.93;;
53040;SDS011;39326;42.650;23.248;2023-04-07T08:38:50;7.93;;;5.93;;
53040;SDS011;39326;42.650;23.248;2023-04-07T08:41:17;4.40;;;4.00;;
53040;SDS011;39326;42.650;23.248;2023-04-07T08:43:49;8.83;;;5.60;;
53040;SDS011;39326;42.650;23.248;2023-04-07T08:46:16;7.17;;;5.30;;
53040;SDS011;39326;42.650;23.248;2023-04-07T08:48:48;6.47;;;5.87;;
53040;SDS011;39326;42.650;23.248;2023-04-07T08:51:16;6.33;;;4.73;;
53040;SDS011;39326;42.650;23.248;2023-04-07T08:53:52;7.37;;;5.37;;
53040;SDS011;39326;42.650;23.248;2023-04-07T08:56:22;6.00;;;4.97;;
53040;SDS011;39326;42.650;23.248;2023-04-07T08:58:50;7.20;;;6.10;;
53040;SDS011;39326;42.650;23.248;2023-04-07T09:01:17;6.00;;;5.33;;
53040;SDS011;39326;42.650;23.248;2023-04-07T09:03:44;5.90;;;5.30;;
53040;SDS011;39326;42.650;23.248;2023-04-07T09:06:12;6.73;;;5.63;;
53040;SDS011;39326;42.650;23.248;2023-04-07T09:08:39;6.60;;;6.10;;
53040;SDS011;39326;42.650;23.248;2023-04-07T09:11:05;4.83;;;4.43;;
53040;SDS011;39326;42.650;23.248;2023-04-07T09:13:31;6.17;;;5.57;;
53040;SDS011;39326;42.650;23.248;2023-04-07T09:15:58;6.03;;;5.43;;
53040;SDS011;39326;42.650;23.248;2023-04-07T09:18:27;10.77;;;5.47;;
53040;SDS011;39326;42.650;23.248;2023-04-07T09:20:56;5.67;;;5.17;;
53040;SDS011;39326;42.650;23.248;2023-04-07T09:23:26;6.00;;;4.27;;
53040;SDS011;39326;42.650;23.248;2023-04-07T09:25:57;6.50;;;5.67;;
53040;SDS011;39326;42.650;23.248;2023-04-07T09:28:41;5.60;;;5.10;;
53040;SDS011;39326;42.650;23.248;2023-04-07T09:31:09;6.37;;;5.77;;
53040;SDS011;39326;42.650;23.248;2023-04-07T09:33:35;6.23;;;5.70;;
53040;SDS011;39326;42.650;23.248;2023-04-07T09:36:03;6.90;;;6.30;;
53040;SDS011;39326;42.650;23.248;2023-04-07T09:38:33;6.03;;;5.43;;
53040;SDS011;39326;42.650;23.248;2023-04-07T09:41:05;9.80;;;6.03;;
53040;SDS011;39326;42.650;23.248;2023-04-07T09:43:37;7.50;;;6.37;;
53040;SDS011;39326;42.650;23.248;2023-04-07T09:46:12;6.60;;;5.97;;
53040;SDS011;39326;42.650;23.248;2023-04-07T09:48:39;7.00;;;5.00;;
53040;SDS011;39326;42.650;23.248;2023-04-07T09:51:16;7.00;;;6.20;;
53040;SDS011;39326;42.650;23.248;2023-04-07T09:53:43;5.97;;;5.33;;
53040;SDS011;39326;42.650;23.248;2023-04-07T09:56:11;6.73;;;5.90;;
53040;SDS011;39326;42.650;23.248;2023-04-07T09:58:40;7.27;;;6.30;;
53040;SDS011;39326;42.650;23.248;2023-04-07T10:01:10;6.83;;;6.17;;
53040;SDS011;39326;42.650;23.248;2023-04-07T10:03:37;8.07;;;6.60;;
53040;SDS011;39326;42.650;23.248;2023-04-07T10:06:04;6.23;;;5.73;;
53040;SDS011;39326;42.650;23.248;2023-04-07T10:08:32;5.90;;;5.40;;
53040;SDS011;39326;42.650;23.248;2023-04-07T10:11:00;5.90;;;5.33;;
53040;SDS011;39326;42.650;23.248;2023-04-07T10:13:31;6.67;;;6.07;;
53040;SDS011;39326;42.650;23.248;2023-04-07T10:15:58;6.90;;;6.20;;
53040;SDS011;39326;42.650;23.248;2023-04-07T10:18:28;6.83;;;6.33;;
53040;SDS011;39326;42.650;23.248;2023-04-07T10:20:59;6.67;;;6.07;;
53040;SDS011;39326;42.650;23.248;2023-04-07T10:23:40;6.53;;;5.73;;
53040;SDS011;39326;42.650;23.248;2023-04-07T10:26:16;5.77;;;5.10;;
53040;SDS011;39326;42.650;23.248;2023-04-07T10:28:45;6.47;;;5.83;;
53040;SDS011;39326;42.650;23.248;2023-04-07T10:31:15;6.60;;;6.00;;
53040;SDS011;39326;42.650;23.248;2023-04-07T10:33:43;7.30;;;5.70;;
53040;SDS011;39326;42.650;23.248;2023-04-07T10:36:14;6.07;;;5.37;;
53040;SDS011;39326;42.650;23.248;2023-04-07T10:38:41;6.20;;;5.60;;
53040;SDS011;39326;42.650;23.248;2023-04-07T10:44:05;6.33;;;5.73;;
53040;SDS011;39326;42.650;23.248;2023-04-07T10:47:01;5.67;;;5.10;;
53040;SDS011;39326;42.650;23.248;2023-04-07T10:49:28;6.27;;;5.67;;
53040;SDS011;39326;42.650;23.248;2023-04-07T10:54:37;5.23;;;4.83;;
53040;SDS011;39326;42.650;23.248;2023-04-07T10:57:13;7.97;;;5.57;;
53040;SDS011;39326;42.650;23.248;2023-04-07T10:59:41;7.43;;;6.73;;
53040;SDS011;39326;42.650;23.248;2023-04-07T11:04:53;6.20;;;5.60;;
53040;SDS011;39326;42.650;23.248;2023-04-07T11:07:20;6.63;;;5.27;;
53040;SDS011;39326;42.650;23.248;2023-04-07T11:10:13;7.20;;;5.57;;
53040;SDS011;39326;42.650;23.248;2023-04-07T11:12:40;7.83;;;6.30;;
53040;SDS011;39326;42.650;23.248;2023-04-07T11:15:19;6.03;;;5.43;;
53040;SDS011;39326;42.650;23.248;2023-04-07T11:18:09;6.43;;;5.83;;
53040;SDS011;39326;42.650;23.248;2023-04-07T11:23:11;6.33;;;5.73;;
53040;SDS011;39326;42.650;23.248;2023-04-07T11:25:38;6.80;;;6.00;;
53040;SDS011;39326;42.650;23.248;2023-04-07T11:28:08;6.73;;;5.90;;
53040;SDS011;39326;42.650;23.248;2023-04-07T11:30:35;6.37;;;5.60;;
53040;SDS011;39326;42.650;23.248;2023-04-07T11:33:02;6.60;;;5.93;;
53040;SDS011;39326;42.650;23.248;2023-04-07T11:35:29;6.07;;;5.47;;
53040;SDS011;39326;42.650;23.248;2023-04-07T11:37:58;5.67;;;5.17;;
53040;SDS011;39326;42.650;23.248;2023-04-07T11:40:35;8.67;;;5.57;;
53040;SDS011;39326;42.650;23.248;2023-04-07T11:43:17;6.73;;;5.57;;
53040;SDS011;39326;42.650;23.248;2023-04-07T11:48:41;5.83;;;4.87;;
53040;SDS011;39326;42.650;23.248;2023-04-07T11:51:15;5.63;;;5.13;;
53040;SDS011;39326;42.650;23.248;2023-04-07T11:53:53;6.20;;;5.70;;
53040;SDS011;39326;42.650;23.248;2023-04-07T11:56:20;7.57;;;5.80;;
53040;SDS011;39326;42.650;23.248;2023-04-07T11:58:47;8.13;;;6.67;;
53040;SDS011;39326;42.650;23.248;2023-04-07T12:01:17;6.73;;;6.13;;
53040;SDS011;39326;42.650;23.248;2023-04-07T12:03:54;9.10;;;7.63;;
53040;SDS011;39326;42.650;23.248;2023-04-07T12:06:34;7.87;;;7.17;;
53040;SDS011;39326;42.650;23.248;2023-04-07T12:09:05;10.30;;;9.37;;
53040;SDS011;39326;42.650;23.248;2023-04-07T12:11:31;9.63;;;8.83;;
53040;SDS011;39326;42.650;23.248;2023-04-07T12:13:57;9.80;;;9.00;;
53040;SDS011;39326;42.650;23.248;2023-04-07T12:16:23;7.10;;;6.40;;
53040;SDS011;39326;42.650;23.248;2023-04-07T12:18:50;8.73;;;7.80;;
53040;SDS011;39326;42.650;23.248;2023-04-07T12:21:17;8.67;;;7.73;;
53040;SDS011;39326;42.650;23.248;2023-04-07T12:23:44;9.30;;;8.40;;
53040;SDS011;39326;42.650;23.248;2023-04-07T12:26:11;7.93;;;7.23;;
53040;SDS011;39326;42.650;23.248;2023-04-07T12:28:38;8.67;;;6.93;;
53040;SDS011;39326;42.650;23.248;2023-04-07T12:31:03;8.70;;;7.90;;
53040;SDS011;39326;42.650;23.248;2023-04-07T12:33:29;8.70;;;7.87;;
53040;SDS011;39326;42.650;23.248;2023-04-07T12:35:56;8.67;;;7.80;;
53040;SDS011;39326;42.650;23.248;2023-04-07T12:38:23;7.93;;;7.23;;
53040;SDS011;39326;42.650;23.248;2023-04-07T12:40:48;7.87;;;7.10;;
53040;SDS011;39326;42.650;23.248;2023-04-07T12:43:14;8.20;;;7.50;;
53040;SDS011;39326;42.650;23.248;2023-04-07T12:45:41;7.83;;;7.23;;
53040;SDS011;39326;42.650;23.248;2023-04-07T12:48:07;6.97;;;6.30;;
53040;SDS011;39326;42.650;23.248;2023-04-07T12:50:34;7.63;;;7.03;;
53040;SDS011;39326;42.650;23.248;2023-04-07T12:53:01;7.67;;;6.97;;
53040;SDS011;39326;42.650;23.248;2023-04-07T12:55:30;7.33;;;6.63;;
53040;SDS011;39326;42.650;23.248;2023-04-07T12:58:00;7.50;;;6.80;;
53040;SDS011;39326;42.650;23.248;2023-04-07T13:00:27;8.67;;;7.93;;
53040;SDS011;39326;42.650;23.248;2023-04-07T13:02:53;9.03;;;8.13;;
53040;SDS011;39326;42.650;23.248;2023-04-07T13:05:19;8.77;;;7.87;;
53040;SDS011;39326;42.650;23.248;2023-04-07T13:07:46;8.70;;;7.90;;
53040;SDS011;39326;42.650;23.248;2023-04-07T13:10:12;8.77;;;8.07;;
53040;SDS011;39326;42.650;23.248;2023-04-07T13:12:39;8.43;;;7.67;;
53040;SDS011;39326;42.650;23.248;2023-04-07T13:15:06;8.43;;;7.63;;
53040;SDS011;39326;42.650;23.248;2023-04-07T13:17:33;7.80;;;7.07;;
53040;SDS011;39326;42.650;23.248;2023-04-07T13:20:01;8.80;;;8.00;;
53040;SDS011;39326;42.650;23.248;2023-04-07T13:22:28;8.43;;;7.60;;
53040;SDS011;39326;42.650;23.248;2023-04-07T13:24:54;8.00;;;7.20;;
53040;SDS011;39326;42.650;23.248;2023-04-07T13:27:20;8.03;;;7.37;;
53040;SDS011;39326;42.650;23.248;2023-04-07T13:29:46;8.57;;;7.33;;
53040;SDS011;39326;42.650;23.248;2023-04-07T13:32:12;8.97;;;8.17;;
53040;SDS011;39326;42.650;23.248;2023-04-07T13:34:40;8.40;;;7.50;;
53040;SDS011;39326;42.650;23.248;2023-04-07T13:37:06;7.37;;;6.67;;
53040;SDS011;39326;42.650;23.248;2023-04-07T13:39:32;8.37;;;7.57;;
53040;SDS011;39326;42.650;23.248;2023-04-07T13:41:58;8.70;;;7.90;;
53040;SDS011;39326;42.650;23.248;2023-04-07T13:44:25;8.57;;;7.80;;
53040;SDS011;39326;42.650;23.248;2023-04-07T13:46:52;8.13;;;7.33;;
53040;SDS011;39326;42.650;23.248;2023-04-07T13:49:19;8.93;;;8.03;;
53040;SDS011;39326;42.650;23.248;2023-04-07T13:51:46;8.17;;;7.37;;
53040;SDS011;39326;42.650;23.248;2023-04-07T13:54:13;8.87;;;8.07;;
53040;SDS011;39326;42.650;23.248;2023-04-07T13:56:41;8.60;;;7.80;;
53040;SDS011;39326;42.650;23.248;2023-04-07T13:59:07;9.40;;;8.50;;
53040;SDS011;39326;42.650;23.248;2023-04-07T14:01:33;9.23;;;8.33;;
53040;SDS011;39326;42.650;23.248;2023-04-07T14:04:00;14.43;;;8.60;;
53040;SDS011;39326;42.650;23.248;2023-04-07T14:06:27;9.57;;;8.77;;
53040;SDS011;39326;42.650;23.248;2023-04-07T14:08:53;8.97;;;7.33;;
53040;SDS011;39326;42.650;23.248;2023-04-07T14:11:19;8.20;;;7.50;;
53040;SDS011;39326;42.650;23.248;2023-04-07T14:13:51;11.10;;;8.50;;
53040;SDS011;39326;42.650;23.248;2023-04-07T14:16:17;8.17;;;7.37;;
53040;SDS011;39326;42.650;23.248;2023-04-07T14:18:43;8.97;;;8.20;;
53040;SDS011;39326;42.650;23.248;2023-04-07T14:21:09;8.77;;;7.90;;
53040;SDS011;39326;42.650;23.248;2023-04-07T14:23:35;9.13;;;8.40;;
53040;SDS011;39326;42.650;23.248;2023-04-07T14:26:02;9.37;;;8.47;;
53040;SDS011;39326;42.650;23.248;2023-04-07T14:28:28;8.67;;;7.80;;
53040;SDS011;39326;42.650;23.248;2023-04-07T14:30:54;10.07;;;9.07;;
53040;SDS011;39326;42.650;23.248;2023-04-07T14:33:20;9.47;;;8.47;;
53040;SDS011;39326;42.650;23.248;2023-04-07T14:35:47;9.13;;;8.33;;
53040;SDS011;39326;42.650;23.248;2023-04-07T14:38:12;9.60;;;8.77;;
53040;SDS011;39326;42.650;23.248;2023-04-07T14:40:39;12.60;;;11.40;;
53040;SDS011;39326;42.650;23.248;2023-04-07T14:43:05;9.30;;;8.37;;
53040;SDS011;39326;42.650;23.248;2023-04-07T14:45:32;11.73;;;10.53;;
53040;SDS011;39326;42.650;23.248;2023-04-07T14:47:59;12.17;;;10.70;;
53040;SDS011;39326;42.650;23.248;2023-04-07T14:50:25;9.60;;;8.80;;
53040;SDS011;39326;42.650;23.248;2023-04-07T14:52:51;11.53;;;10.43;;
53040;SDS011;39326;42.650;23.248;2023-04-07T14:55:18;8.67;;;7.97;;